createdAt,value
2022-12-04T00:00:35.380Z,98.50
2022-12-04T00:03:03.169Z,98.40
2022-12-04T00:05:31.037Z,98.30
2022-12-04T00:07:58.913Z,98.20
2022-12-04T00:10:26.873Z,98.20
2022-12-04T00:12:54.649Z,98.20
2022-12-04T00:15:25.665Z,98.20
2022-12-04T00:17:54.123Z,98.20
2022-12-04T00:20:23.166Z,98.10
2022-12-04T00:22:51.480Z,98.00
2022-12-04T00:25:18.938Z,98.00
2022-12-04T00:27:46.657Z,97.90
2022-12-04T00:30:14.625Z,97.90
2022-12-04T00:32:42.405Z,97.90
2022-12-04T00:35:10.021Z,97.80
2022-12-04T00:37:37.499Z,97.80
2022-12-04T00:40:05.848Z,97.80
2022-12-04T00:42:33.394Z,97.70
2022-12-04T00:45:01.097Z,97.70
2022-12-04T00:47:28.708Z,97.70
2022-12-04T00:49:56.469Z,97.70
2022-12-04T00:52:24.243Z,97.60
2022-12-04T00:54:52.137Z,97.60
2022-12-04T00:57:19.725Z,97.50
2022-12-04T00:59:47.621Z,97.60
2022-12-04T01:02:15.212Z,97.60
2022-12-04T01:04:43.177Z,97.60
2022-12-04T01:07:10.717Z,97.50
2022-12-04T01:09:38.256Z,97.60
2022-12-04T01:12:06.189Z,97.50
2022-12-04T01:14:34.551Z,97.50
2022-12-04T01:17:02.402Z,97.40
2022-12-04T01:19:29.972Z,97.50
2022-12-04T01:21:57.983Z,97.50
2022-12-04T01:24:25.599Z,97.50
2022-12-04T01:26:53.522Z,97.40
2022-12-04T01:29:21.284Z,97.50
2022-12-04T01:31:49.354Z,97.60
2022-12-04T01:34:16.924Z,97.70
2022-12-04T01:36:44.670Z,97.70
2022-12-04T01:39:12.546Z,97.50
2022-12-04T01:41:40.780Z,97.60
2022-12-04T01:44:14.750Z,97.60
2022-12-04T01:46:44.503Z,97.60
2022-12-04T01:49:29.748Z,97.60
2022-12-04T01:52:11.464Z,97.60
2022-12-04T01:54:43.968Z,97.60
2022-12-04T01:57:21.336Z,97.60
2022-12-04T02:00:05.338Z,97.60
2022-12-04T02:02:36.748Z,97.60
2022-12-04T02:05:07.721Z,97.60
2022-12-04T02:07:37.676Z,97.60
2022-12-04T02:10:08.683Z,97.60
2022-12-04T02:12:45.567Z,97.70
2022-12-04T02:15:21.479Z,97.70
2022-12-04T02:18:06.033Z,97.80
2022-12-04T02:20:43.625Z,97.80
2022-12-04T02:23:20.642Z,97.80
2022-12-04T02:26:20.036Z,97.80
2022-12-04T02:28:57.627Z,97.80
2022-12-04T02:31:44.158Z,97.90
2022-12-04T02:34:29.101Z,97.90
2022-12-04T02:37:03.781Z,98.00
2022-12-04T02:39:34.206Z,98.00
2022-12-04T02:42:19.431Z,98.00
2022-12-04T02:44:55.948Z,98.10
2022-12-04T02:47:25.501Z,98.20
2022-12-04T02:49:57.887Z,98.20
2022-12-04T02:52:34.816Z,98.30
2022-12-04T02:55:23.489Z,98.40
2022-12-04T02:57:56.148Z,98.40
2022-12-04T03:00:23.996Z,98.50
2022-12-04T03:03:19.975Z,98.50
2022-12-04T03:05:50.694Z,98.50
2022-12-04T03:08:24.259Z,98.50
2022-12-04T03:10:57.548Z,98.60
2022-12-04T03:13:50.849Z,98.70
2022-12-04T03:16:27.524Z,98.80
2022-12-04T03:19:15.337Z,98.90
2022-12-04T03:22:04.794Z,99.00
2022-12-04T03:24:37.908Z,99.10
2022-12-04T03:27:16.666Z,99.20
2022-12-04T03:29:46.370Z,99.30
2022-12-04T03:32:21.298Z,99.30
2022-12-04T03:34:56.830Z,99.40
2022-12-04T03:37:47.754Z,99.40
2022-12-04T03:40:41.036Z,99.50
2022-12-04T03:43:20.432Z,99.50
2022-12-04T03:46:11.357Z,99.70
2022-12-04T03:48:44.093Z,99.70
2022-12-04T03:51:27.543Z,99.60
2022-12-04T03:54:00.917Z,99.80
2022-12-04T03:56:38.609Z,99.80
2022-12-04T03:59:12.550Z,99.90
2022-12-04T04:01:44.936Z,99.90
2022-12-04T04:04:19.632Z,99.90
2022-12-04T04:06:57.391Z,99.90
2022-12-04T04:09:27.646Z,99.90
2022-12-04T04:12:31.036Z,99.90
2022-12-04T04:15:27.384Z,99.90
2022-12-04T04:18:15.886Z,99.90
2022-12-04T04:21:07.231Z,99.90
2022-12-04T04:23:59.889Z,99.90
2022-12-04T04:26:32.219Z,99.90
2022-12-04T04:29:00.260Z,99.90
2022-12-04T04:31:42.030Z,99.90
2022-12-04T04:34:25.099Z,99.90
2022-12-04T04:37:07.913Z,99.90
2022-12-04T04:39:48.732Z,99.90
2022-12-04T04:42:27.832Z,99.90
2022-12-04T04:44:55.414Z,99.90
2022-12-04T04:47:41.349Z,99.90
2022-12-04T04:50:11.687Z,99.90
2022-12-04T04:52:42.175Z,99.90
2022-12-04T04:55:10.611Z,99.90
2022-12-04T04:57:38.337Z,99.90
2022-12-04T05:00:10.841Z,99.90
2022-12-04T05:02:38.646Z,99.90
2022-12-04T05:05:07.028Z,99.90
2022-12-04T05:07:34.771Z,99.90
2022-12-04T05:10:06.108Z,99.90
2022-12-04T05:12:33.839Z,99.90
2022-12-04T05:15:01.641Z,99.90
2022-12-04T05:17:29.858Z,99.90
2022-12-04T05:19:57.985Z,99.90
2022-12-04T05:22:36.592Z,99.90
2022-12-04T05:25:05.655Z,99.90
2022-12-04T05:27:34.014Z,99.90
2022-12-04T05:30:01.793Z,99.90
2022-12-04T05:32:30.348Z,99.90
2022-12-04T05:34:58.724Z,99.90
2022-12-04T05:37:26.981Z,99.90
2022-12-04T05:39:54.900Z,99.90
2022-12-04T05:42:22.808Z,99.90
2022-12-04T05:44:50.362Z,99.90
2022-12-04T05:47:18.591Z,99.90
2022-12-04T05:49:46.098Z,99.90
2022-12-04T05:52:13.727Z,99.90
2022-12-04T05:54:41.407Z,99.90
2022-12-04T05:57:09.033Z,99.90
2022-12-04T05:59:36.921Z,99.90
2022-12-04T06:02:04.772Z,99.90
2022-12-04T06:04:32.397Z,99.90
2022-12-04T06:07:00.102Z,99.90
2022-12-04T06:09:27.962Z,99.90
2022-12-04T06:11:58.378Z,99.90
2022-12-04T06:14:25.899Z,99.90
2022-12-04T06:16:53.689Z,99.90
2022-12-04T06:19:22.616Z,99.90
2022-12-04T06:21:52.416Z,99.90
2022-12-04T06:24:23.739Z,99.90
2022-12-04T06:29:43.449Z,99.90
2022-12-04T06:32:12.253Z,99.90
2022-12-04T06:34:42.945Z,99.90
2022-12-04T06:37:10.953Z,99.90
2022-12-04T06:39:38.592Z,99.90
2022-12-04T06:42:06.338Z,99.90
2022-12-04T06:44:34.469Z,99.90
2022-12-04T06:47:02.203Z,99.90
2022-12-04T06:49:29.701Z,99.90
2022-12-04T06:51:57.351Z,99.90
2022-12-04T06:54:26.074Z,99.90
2022-12-04T06:56:53.543Z,99.90
2022-12-04T06:59:21.055Z,99.90
2022-12-04T07:01:48.814Z,99.90
2022-12-04T07:04:16.589Z,99.90
2022-12-04T07:06:44.158Z,99.90
2022-12-04T07:09:16.918Z,99.90
2022-12-04T07:11:45.326Z,99.90
2022-12-04T07:14:14.060Z,99.90
2022-12-04T07:16:42.763Z,99.90
2022-12-04T07:19:12.861Z,99.90
2022-12-04T07:21:41.349Z,99.90
2022-12-04T07:24:15.858Z,99.90
2022-12-04T07:26:43.948Z,99.90
2022-12-04T07:29:11.488Z,99.90
2022-12-04T07:31:39.113Z,99.90
2022-12-04T07:34:06.804Z,99.90
2022-12-04T07:36:34.413Z,99.90
2022-12-04T07:39:02.298Z,99.90
2022-12-04T07:41:29.845Z,99.90
2022-12-04T07:43:57.641Z,99.90
2022-12-04T07:46:28.245Z,99.90
2022-12-04T07:48:59.719Z,99.90
2022-12-04T07:51:30.244Z,99.90
2022-12-04T07:54:03.251Z,99.90
2022-12-04T07:56:33.518Z,99.90
2022-12-04T07:59:01.724Z,99.90
2022-12-04T08:01:29.480Z,99.90
2022-12-04T08:03:59.469Z,99.90
2022-12-04T08:06:28.932Z,99.90
2022-12-04T08:08:57.623Z,99.90
2022-12-04T08:11:27.378Z,99.90
2022-12-04T08:14:00.390Z,99.90
2022-12-04T08:16:30.631Z,99.90
2022-12-04T08:18:59.680Z,99.90
2022-12-04T08:21:29.973Z,99.90
2022-12-04T08:23:59.050Z,99.90
2022-12-04T08:26:29.000Z,99.90
2022-12-04T08:28:57.810Z,99.90
2022-12-04T08:31:27.579Z,99.90
2022-12-04T08:33:57.288Z,99.90
2022-12-04T08:36:25.624Z,99.90
2022-12-04T08:38:53.384Z,99.90
2022-12-04T08:41:24.207Z,99.90
2022-12-04T08:43:57.922Z,99.90
2022-12-04T08:46:27.446Z,99.90
2022-12-04T08:48:55.571Z,99.90
2022-12-04T08:51:25.887Z,99.90
2022-12-04T08:53:55.516Z,99.90
2022-12-04T08:56:24.267Z,99.90
2022-12-04T08:58:51.919Z,99.90
2022-12-04T09:01:19.967Z,99.90
2022-12-04T09:03:47.642Z,99.90
2022-12-04T09:06:16.031Z,99.90
2022-12-04T09:08:43.989Z,99.90
2022-12-04T09:11:17.869Z,99.90
2022-12-04T09:13:45.830Z,99.80
2022-12-04T09:16:16.828Z,99.90
2022-12-04T09:18:44.775Z,99.90
2022-12-04T09:21:14.768Z,99.90
2022-12-04T09:23:42.602Z,99.90
2022-12-04T09:26:21.667Z,99.90
2022-12-04T09:28:50.945Z,99.90
2022-12-04T09:31:20.358Z,99.90
2022-12-04T09:33:48.073Z,99.90
2022-12-04T09:36:16.461Z,99.90
2022-12-04T09:38:46.179Z,99.90
2022-12-04T09:41:41.742Z,99.90
2022-12-04T09:44:19.990Z,99.90
2022-12-04T09:47:02.187Z,99.90
2022-12-04T09:49:53.812Z,99.90
2022-12-04T09:52:44.530Z,99.90
2022-12-04T09:55:22.598Z,99.90
2022-12-04T09:58:00.000Z,99.90
2022-12-04T10:00:30.869Z,99.90
2022-12-04T10:03:07.136Z,99.90
2022-12-04T10:06:03.600Z,99.90
2022-12-04T10:08:44.699Z,99.90
2022-12-04T10:11:12.087Z,99.90
2022-12-04T10:13:58.407Z,99.90
2022-12-04T10:16:53.087Z,99.90
2022-12-04T10:19:44.790Z,99.90
2022-12-04T10:22:48.959Z,99.90
2022-12-04T10:25:20.713Z,99.90
2022-12-04T10:27:53.314Z,99.90
2022-12-04T10:30:24.225Z,99.90
2022-12-04T10:32:59.717Z,99.90
2022-12-04T10:35:30.271Z,99.90
2022-12-04T10:38:03.330Z,99.90
2022-12-04T10:40:39.388Z,99.90
2022-12-04T10:43:34.529Z,99.90
2022-12-04T10:46:02.215Z,99.90
2022-12-04T10:48:38.628Z,99.90
2022-12-04T10:51:06.346Z,99.90
2022-12-04T10:53:37.180Z,99.90
2022-12-04T10:56:12.840Z,99.90
2022-12-04T10:58:40.471Z,99.90
2022-12-04T11:01:15.485Z,99.90
2022-12-04T11:03:47.103Z,99.80
2022-12-04T11:06:15.177Z,99.80
2022-12-04T11:08:49.563Z,99.60
2022-12-04T11:11:33.454Z,99.60
2022-12-04T11:14:05.971Z,99.50
2022-12-04T11:16:35.582Z,99.50
2022-12-04T11:19:03.969Z,99.40
2022-12-04T11:21:32.517Z,99.40
2022-12-04T11:24:00.180Z,99.40
2022-12-04T11:26:37.244Z,99.30
2022-12-04T11:29:06.032Z,99.20
2022-12-04T11:31:34.008Z,99.20
2022-12-04T11:34:09.438Z,99.20
2022-12-04T11:36:42.974Z,99.20
2022-12-04T11:39:13.473Z,99.20
2022-12-04T11:41:41.689Z,99.20
2022-12-04T11:44:30.771Z,99.30
2022-12-04T11:47:02.383Z,99.20
2022-12-04T11:49:31.582Z,99.20
2022-12-04T11:52:12.053Z,99.20
2022-12-04T11:55:14.035Z,99.10
2022-12-04T11:57:50.537Z,99.20
2022-12-04T12:00:19.271Z,99.20
2022-12-04T12:02:54.626Z,99.40
2022-12-04T12:05:43.749Z,99.20
2022-12-04T12:08:20.757Z,99.30
2022-12-04T12:11:12.303Z,99.20
2022-12-04T12:13:45.555Z,99.20
2022-12-04T12:16:40.498Z,99.10
2022-12-04T12:19:45.824Z,99.40
2022-12-04T12:22:35.210Z,99.10
2022-12-04T12:25:19.843Z,99.10
2022-12-04T12:28:05.879Z,99.20
2022-12-04T12:30:48.971Z,99.20
2022-12-04T12:33:26.597Z,99.20
2022-12-04T12:36:14.472Z,99.30
2022-12-04T12:38:48.771Z,99.30
2022-12-04T12:41:32.420Z,99.30
2022-12-04T12:44:34.751Z,99.30
2022-12-04T12:47:09.470Z,99.30
2022-12-04T12:49:50.368Z,99.30
2022-12-04T12:52:32.730Z,99.30
2022-12-04T12:55:03.275Z,99.30
2022-12-04T12:57:40.826Z,99.30
2022-12-04T13:00:21.851Z,99.70
2022-12-04T13:02:54.121Z,99.30
2022-12-04T13:05:39.680Z,99.30
2022-12-04T13:08:30.925Z,99.40
2022-12-04T13:11:12.459Z,99.40
2022-12-04T13:13:46.323Z,99.40
2022-12-04T13:16:31.312Z,99.30
2022-12-04T13:19:32.861Z,99.30
2022-12-04T13:22:18.567Z,99.30
2022-12-04T13:25:16.943Z,99.30
2022-12-04T13:28:02.810Z,99.30
2022-12-04T13:30:43.395Z,99.30
2022-12-04T13:33:21.101Z,99.20
2022-12-04T13:36:21.180Z,99.20
2022-12-04T13:39:00.702Z,99.10
2022-12-04T13:41:30.121Z,99.20
2022-12-04T13:44:02.829Z,99.10
2022-12-04T13:46:42.727Z,99.10
2022-12-04T13:49:26.966Z,99.20
2022-12-04T13:51:56.431Z,99.10
2022-12-04T13:54:32.540Z,99.10
2022-12-04T13:57:15.302Z,99.00
2022-12-04T13:59:43.963Z,99.00
2022-12-04T14:02:21.501Z,99.10
2022-12-04T14:05:20.874Z,99.00
2022-12-04T14:08:16.767Z,99.00
2022-12-04T14:11:03.623Z,99.00
2022-12-04T14:13:52.118Z,99.00
2022-12-04T14:16:26.181Z,99.00
2022-12-04T14:18:57.987Z,99.00
2022-12-04T14:21:26.524Z,99.00
2022-12-04T14:23:54.245Z,99.00
2022-12-04T14:26:37.290Z,99.00
2022-12-04T14:29:30.331Z,99.00
2022-12-04T14:32:08.323Z,99.00
2022-12-04T14:34:38.865Z,99.00
2022-12-04T14:37:07.305Z,99.00
2022-12-04T14:39:45.480Z,99.10
2022-12-04T14:42:26.625Z,99.10
2022-12-04T14:44:59.153Z,99.20
2022-12-04T14:47:48.752Z,99.20
2022-12-04T14:50:47.204Z,99.40
2022-12-04T14:53:46.058Z,99.40
2022-12-04T14:56:13.600Z,99.40
2022-12-04T14:58:42.631Z,99.50
2022-12-04T15:01:30.117Z,99.60
2022-12-04T15:04:02.169Z,99.60
2022-12-04T15:06:32.472Z,99.50
2022-12-04T15:09:21.673Z,99.50
2022-12-04T15:12:13.627Z,99.50
2022-12-04T15:14:49.155Z,99.40
2022-12-04T15:17:18.669Z,99.30
2022-12-04T15:19:46.497Z,99.30
2022-12-04T15:22:26.090Z,99.30
2022-12-04T15:24:55.102Z,99.30
2022-12-04T15:27:32.124Z,99.20
2022-12-04T15:30:02.764Z,99.20
2022-12-04T15:32:32.064Z,99.20
2022-12-04T15:35:09.177Z,99.20
2022-12-04T15:37:38.369Z,99.20
2022-12-04T15:40:07.773Z,99.10
2022-12-04T15:42:35.682Z,99.10
2022-12-04T15:45:09.402Z,99.00
2022-12-04T15:47:42.764Z,98.90
2022-12-04T15:50:16.440Z,98.90
2022-12-04T15:53:06.271Z,98.90
2022-12-04T15:55:39.681Z,98.90
2022-12-04T15:58:19.106Z,98.80
2022-12-04T16:00:46.864Z,98.80
2022-12-04T16:03:43.172Z,98.80
2022-12-04T16:06:27.041Z,98.70
2022-12-04T16:08:59.299Z,98.70
2022-12-04T16:11:36.619Z,98.70
2022-12-04T16:14:13.002Z,98.70
2022-12-04T16:16:45.481Z,98.70
2022-12-04T16:19:33.261Z,98.70
2022-12-04T16:22:13.743Z,98.70
2022-12-04T16:24:42.035Z,98.70
2022-12-04T16:27:15.974Z,98.70
2022-12-04T16:29:45.380Z,98.70
2022-12-04T16:32:16.270Z,99.10
2022-12-04T16:34:44.172Z,98.80
2022-12-04T16:37:20.461Z,98.80
2022-12-04T16:39:48.636Z,98.90
2022-12-04T16:42:18.460Z,98.90
2022-12-04T16:44:46.455Z,98.90
2022-12-04T16:47:14.683Z,99.00
2022-12-04T16:49:43.458Z,99.00
2022-12-04T16:52:12.564Z,99.00
2022-12-04T16:54:40.928Z,99.00
2022-12-04T16:57:09.520Z,99.10
2022-12-04T16:59:38.052Z,99.10
2022-12-04T17:02:20.647Z,99.10
2022-12-04T17:04:51.534Z,99.10
2022-12-04T17:07:23.781Z,99.10
2022-12-04T17:09:51.855Z,99.20
2022-12-04T17:12:19.709Z,99.20
2022-12-04T17:14:47.736Z,99.60
2022-12-04T17:17:15.752Z,99.70
2022-12-04T17:19:43.355Z,99.90
2022-12-04T17:22:10.924Z,99.80
2022-12-04T17:24:43.581Z,99.70
2022-12-04T17:27:14.867Z,99.70
2022-12-04T17:29:42.658Z,99.70
2022-12-04T17:32:10.396Z,99.60
2022-12-04T17:34:38.209Z,99.60
2022-12-04T17:37:06.399Z,99.60
2022-12-04T17:39:34.502Z,99.60
2022-12-04T17:42:02.000Z,99.70
2022-12-04T17:44:29.620Z,99.80
2022-12-04T17:46:57.389Z,99.80
2022-12-04T17:49:24.891Z,99.90
2022-12-04T17:51:52.470Z,99.80
2022-12-04T17:54:20.429Z,99.80
2022-12-04T17:56:50.380Z,99.80
2022-12-04T17:59:21.047Z,99.90
2022-12-04T18:01:50.364Z,99.90
2022-12-04T18:04:19.254Z,99.90
2022-12-04T18:06:47.598Z,99.90
2022-12-04T18:09:17.371Z,99.90
2022-12-04T18:11:47.151Z,99.90
2022-12-04T18:14:18.210Z,99.90
2022-12-04T18:16:48.062Z,99.90
2022-12-04T18:19:16.150Z,99.90
2022-12-04T18:21:44.110Z,99.90
2022-12-04T18:24:12.516Z,99.90
2022-12-04T18:26:43.182Z,99.90
2022-12-04T18:29:13.767Z,99.90
2022-12-04T18:31:42.155Z,99.90
2022-12-04T18:34:09.992Z,99.90
2022-12-04T18:36:40.894Z,99.90
2022-12-04T18:39:13.468Z,99.90
2022-12-04T18:41:41.224Z,99.90
2022-12-04T18:44:08.763Z,99.90
2022-12-04T18:46:36.476Z,99.90
2022-12-04T18:49:04.541Z,99.90
2022-12-04T18:51:39.447Z,99.90
2022-12-04T18:54:27.334Z,99.90
2022-12-04T18:56:54.934Z,99.90
2022-12-04T18:59:25.407Z,99.90
2022-12-04T19:01:53.912Z,99.90
2022-12-04T19:04:23.575Z,99.90
2022-12-04T19:06:54.236Z,99.90
2022-12-04T19:09:47.269Z,99.90
2022-12-04T19:12:13.126Z,99.90
2022-12-04T19:14:40.969Z,99.90
2022-12-04T19:17:09.130Z,99.90
2022-12-04T19:19:36.944Z,99.90
2022-12-04T19:22:04.671Z,99.90
2022-12-04T19:24:32.444Z,99.90
2022-12-04T19:27:01.859Z,99.90
2022-12-04T19:29:29.533Z,99.90
2022-12-04T19:31:59.434Z,99.90
2022-12-04T19:34:28.791Z,99.90
2022-12-04T19:36:56.401Z,99.90
2022-12-04T19:39:23.863Z,99.90
2022-12-04T19:41:52.774Z,99.90
2022-12-04T19:44:47.920Z,99.90
2022-12-04T19:47:10.977Z,99.90
2022-12-04T19:49:38.572Z,99.90
2022-12-04T19:52:07.325Z,99.90
2022-12-04T19:54:34.780Z,99.90
2022-12-04T19:57:02.153Z,99.90
2022-12-04T19:59:36.021Z,99.90
2022-12-04T20:02:04.702Z,99.90
2022-12-04T20:04:32.379Z,99.90
2022-12-04T20:06:59.913Z,99.90
2022-12-04T20:09:27.695Z,99.90
2022-12-04T20:11:55.130Z,99.90
2022-12-04T20:14:22.958Z,99.90
2022-12-04T20:16:51.050Z,99.90
2022-12-04T20:19:19.376Z,99.90
2022-12-04T20:21:56.087Z,99.90
2022-12-04T20:24:26.682Z,99.90
2022-12-04T20:26:54.166Z,99.90
2022-12-04T20:29:24.732Z,99.90
2022-12-04T20:31:52.454Z,99.90
2022-12-04T20:34:19.960Z,99.90
2022-12-04T20:36:48.898Z,99.90
2022-12-04T20:39:18.167Z,99.90
2022-12-04T20:41:46.864Z,99.90
2022-12-04T20:44:16.980Z,99.90
2022-12-04T20:46:44.988Z,99.90
2022-12-04T20:49:21.038Z,99.90
2022-12-04T20:51:50.460Z,99.90
2022-12-04T20:54:21.068Z,99.90
2022-12-04T20:56:50.018Z,99.90
2022-12-04T20:59:19.007Z,99.90
2022-12-04T21:01:47.515Z,99.90
2022-12-04T21:04:17.726Z,99.90
2022-12-04T21:06:46.676Z,99.90
2022-12-04T21:09:20.944Z,99.90
2022-12-04T21:11:51.982Z,99.90
2022-12-04T21:14:44.703Z,99.90
2022-12-04T21:17:18.295Z,99.90
2022-12-04T21:19:47.372Z,99.90
2022-12-04T21:22:15.901Z,99.90
2022-12-04T21:24:43.624Z,99.90
2022-12-04T21:27:15.822Z,99.90
2022-12-04T21:29:49.045Z,99.90
2022-12-04T21:32:17.927Z,99.90
2022-12-04T21:34:45.513Z,99.90
2022-12-04T21:37:13.459Z,99.90
2022-12-04T21:39:43.553Z,99.90
2022-12-04T21:42:30.143Z,99.90
2022-12-04T21:44:59.170Z,99.90
2022-12-04T21:47:27.500Z,99.90
2022-12-04T21:49:55.526Z,99.90
2022-12-04T21:52:23.871Z,99.90
2022-12-04T21:54:52.803Z,99.90
2022-12-04T21:57:21.513Z,99.90
2022-12-04T21:59:51.570Z,99.90
2022-12-04T22:02:19.573Z,99.90
2022-12-04T22:04:47.719Z,99.90
2022-12-04T22:07:15.934Z,99.90
2022-12-04T22:09:43.861Z,99.90
2022-12-04T22:12:33.186Z,99.90
2022-12-04T22:14:59.060Z,99.90
2022-12-04T22:17:29.591Z,99.90
2022-12-04T22:19:57.325Z,99.90
2022-12-04T22:22:25.407Z,99.90
2022-12-04T22:24:52.968Z,99.90
2022-12-04T22:27:20.456Z,99.90
2022-12-04T22:29:50.858Z,99.90
2022-12-04T22:32:19.980Z,99.90
2022-12-04T22:34:50.493Z,99.90
2022-12-04T22:37:18.179Z,99.90
2022-12-04T22:39:46.074Z,99.90
2022-12-04T22:42:13.555Z,99.90
2022-12-04T22:44:41.039Z,99.90
2022-12-04T22:47:08.815Z,99.90
2022-12-04T22:49:36.485Z,99.90
2022-12-04T22:52:04.926Z,99.90
2022-12-04T22:54:32.609Z,99.90
2022-12-04T22:57:00.327Z,99.90
2022-12-04T22:59:28.036Z,99.90
2022-12-04T23:01:55.595Z,99.90
2022-12-04T23:04:23.142Z,99.90
2022-12-04T23:06:50.750Z,99.90
2022-12-04T23:09:18.784Z,99.90
2022-12-04T23:11:50.160Z,99.90
2022-12-04T23:14:17.954Z,99.90
2022-12-04T23:16:45.522Z,99.90
2022-12-04T23:19:16.820Z,99.90
2022-12-04T23:21:44.999Z,99.90
2022-12-04T23:24:13.083Z,99.90
2022-12-04T23:26:46.213Z,99.90
2022-12-04T23:29:36.852Z,99.90
2022-12-04T23:32:02.546Z,99.90
2022-12-04T23:34:30.142Z,99.90
2022-12-04T23:36:57.726Z,99.90
2022-12-04T23:39:25.287Z,99.90
2022-12-04T23:41:52.869Z,99.90
2022-12-04T23:44:20.710Z,99.90
2022-12-04T23:46:48.665Z,99.90
2022-12-04T23:49:16.724Z,99.90
2022-12-04T23:51:44.270Z,99.90
2022-12-04T23:54:11.691Z,99.90
2022-12-04T23:56:39.291Z,99.90
2022-12-04T23:59:07.896Z,99.90
